Montgomery, Minnesota
Current Conditions -  °F | °C
As of 8:14 AM on Monday 24 Nov 2014 (Local Time) from KFBL Reporting Station
Overcast Overcast  
Wind Chill:   Ceiling: 1100
Heat Index: 21°   Visibility: 10mi
Dew Point: 19°   Wind: 18mph
Humidity: 93%   Direction: 290°WNW
Pressure: 29.4"   Gusts: 28mph
Location:  44.44°N, 93.58°W
Report Text: KFBL 241414Z AUTO 29016G24KT 10SM OVC011 M06/M07 A2940 RMK AO2
Loading
Personal Weather Stations






























Interactive Weather Map New forecast layout! Learn more

10-Day Weather Forecast

Advertisements
Track Severe Weather on mobile